Time;durP1;ratioP1;P1;durP2;ratioP2;P2;SDS_P1;SDS_P2;PMS_P1;PMS_P2;Temp;Humidity;BMP_temperature;BMP_pressure;BME280_temperature;BME280_humidity;BME280_pressure;Samples;Min_cycle;Max_cycle;Signal;HPM_P1;HPM_P2
2021/08/16 00:02:20;;;;;;;12.82;4.72;;;;;;;;;;4992631;28;20058;-57
2021/08/16 00:04:48;;;;;;;9.60;5.05;;;;;;;;;;4992172;28;20437;-57
2021/08/16 00:07:17;;;;;;;8.10;5.00;;;;;;;;;;4992553;28;20053;-58
2021/08/16 00:09:45;;;;;;;10.30;5.13;;;;;;;;;;4993369;28;20615;-58
2021/08/16 00:12:15;;;;;;;8.95;4.72;;;;;;;;;;4992970;28;20042;-59
2021/08/16 00:14:43;;;;;;;8.95;4.57;;;;;;;;;;4992267;28;20053;-58
2021/08/16 00:17:12;;;;;;;8.57;4.47;;;;;;;;;;4992619;28;20054;-59
2021/08/16 00:19:40;;;;;;;7.18;4.28;;;;;;;;;;4992322;28;20060;-58
2021/08/16 00:22:09;;;;;;;11.90;5.10;;;;;;;;;;4991921;28;20050;-58
2021/08/16 00:24:37;;;;;;;8.57;4.45;;;;;;;;;;4992108;28;20053;-58
2021/08/16 00:27:05;;;;;;;9.45;5.07;;;;;;;;;;4992741;28;20054;-57
2021/08/16 00:29:35;;;;;;;8.82;4.45;;;;;;;;;;4992736;28;20047;-59
2021/08/16 00:32:03;;;;;;;10.07;4.88;;;;;;;;;;4993117;28;20133;-58
2021/08/16 00:34:31;;;;;;;13.20;5.45;;;;;;;;;;4999542;28;20057;-58
2021/08/16 00:36:59;;;;;;;8.80;4.90;;;;;;;;;;5011879;28;20053;-58
2021/08/16 00:39:28;;;;;;;7.40;4.20;;;;;;;;;;5011821;28;20575;-57
2021/08/16 00:41:56;;;;;;;10.75;4.03;;;;;;;;;;5011508;28;20050;-58
2021/08/16 00:44:24;;;;;;;10.60;4.43;;;;;;;;;;5011023;28;20112;-58
2021/08/16 00:46:55;;;;;;;6.28;4.15;;;;;;;;;;5010977;28;20052;-59
2021/08/16 00:49:23;;;;;;;8.80;4.18;;;;;;;;;;5011355;28;20049;-58
2021/08/16 00:51:51;;;;;;;7.70;4.45;;;;;;;;;;5011272;28;20054;-58
2021/08/16 00:54:19;;;;;;;6.35;3.78;;;;;;;;;;5010931;28;20128;-57
2021/08/16 00:56:48;;;;;;;6.63;4.00;;;;;;;;;;5011249;28;20068;-57
2021/08/16 00:59:18;;;;;;;6.63;3.83;;;;;;;;;;5011335;28;20421;-59
2021/08/16 01:01:46;;;;;;;8.55;4.60;;;;;;;;;;5011322;28;20054;-58
2021/08/16 01:04:16;;;;;;;4.78;3.92;;;;;;;;;;5009468;28;20070;-59
2021/08/16 01:06:44;;;;;;;6.40;3.53;;;;;;;;;;5011280;28;20132;-59
2021/08/16 01:09:12;;;;;;;6.95;4.05;;;;;;;;;;5011617;28;20221;-58
2021/08/16 01:11:41;;;;;;;8.80;4.07;;;;;;;;;;5011277;28;20467;-57
2021/08/16 01:14:09;;;;;;;8.00;3.88;;;;;;;;;;5011373;28;20088;-58
2021/08/16 01:16:37;;;;;;;6.45;4.20;;;;;;;;;;5011388;28;20053;-57
2021/08/16 01:19:06;;;;;;;7.90;4.40;;;;;;;;;;5010579;28;20490;-58
2021/08/16 01:21:36;;;;;;;8.40;4.40;;;;;;;;;;5010983;28;20385;-59
2021/08/16 01:24:04;;;;;;;7.80;4.10;;;;;;;;;;5010521;28;20553;-58
2021/08/16 01:26:34;;;;;;;11.77;4.80;;;;;;;;;;5011214;28;20054;-59
2021/08/16 01:29:03;;;;;;;8.55;4.30;;;;;;;;;;5011029;28;20057;-57
2021/08/16 01:31:53;;;;;;;9.32;4.53;;;;;;;;;;5011515;28;20675;-59
2021/08/16 01:34:22;;;;;;;12.30;4.47;;;;;;;;;;5014348;28;20443;-58
2021/08/16 01:36:50;;;;;;;8.65;4.95;;;;;;;;;;5015306;28;20077;-59
2021/08/16 01:39:18;;;;;;;9.63;5.50;;;;;;;;;;5014952;28;20052;-58
2021/08/16 01:41:48;;;;;;;7.95;4.20;;;;;;;;;;5014262;28;20137;-58
2021/08/16 01:44:16;;;;;;;7.63;3.60;;;;;;;;;;5013451;28;20064;-58
2021/08/16 01:46:45;;;;;;;12.90;4.07;;;;;;;;;;5014590;28;20057;-59
2021/08/16 01:49:14;;;;;;;6.50;2.97;;;;;;;;;;5014778;28;20129;-58
2021/08/16 01:51:42;;;;;;;7.97;3.13;;;;;;;;;;5013694;28;20053;-59
2021/08/16 01:54:11;;;;;;;5.40;3.10;;;;;;;;;;5008636;28;20050;-58
2021/08/16 01:56:40;;;;;;;5.18;2.90;;;;;;;;;;4994260;28;20128;-58
2021/08/16 01:59:09;;;;;;;5.93;3.10;;;;;;;;;;4992812;28;20383;-58
2021/08/16 02:01:38;;;;;;;5.13;2.88;;;;;;;;;;4993640;28;20148;-58
2021/08/16 02:04:06;;;;;;;3.55;2.63;;;;;;;;;;4998246;28;20080;-59
2021/08/16 02:06:35;;;;;;;8.48;2.97;;;;;;;;;;5013798;28;20125;-58
2021/08/16 02:09:04;;;;;;;8.43;3.15;;;;;;;;;;5013811;28;20061;-58
2021/08/16 02:11:32;;;;;;;7.03;3.08;;;;;;;;;;5011406;28;20379;-58
2021/08/16 02:14:00;;;;;;;7.00;3.00;;;;;;;;;;4993865;28;20068;-58
2021/08/16 02:16:30;;;;;;;5.38;2.72;;;;;;;;;;4994062;28;20594;-58
2021/08/16 02:18:58;;;;;;;5.03;2.85;;;;;;;;;;4994842;28;20046;-59
2021/08/16 02:21:26;;;;;;;5.93;2.90;;;;;;;;;;4994039;28;20072;-58
2021/08/16 02:23:54;;;;;;;5.18;3.20;;;;;;;;;;4993234;28;20050;-58
2021/08/16 02:26:23;;;;;;;8.25;3.17;;;;;;;;;;5006089;28;20054;-58
2021/08/16 02:28:51;;;;;;;7.43;3.08;;;;;;;;;;5013713;28;20050;-58
2021/08/16 02:31:23;;;;;;;7.47;3.15;;;;;;;;;;5013652;28;20049;-58
2021/08/16 02:33:53;;;;;;;4.97;3.00;;;;;;;;;;5012510;28;20108;-58
2021/08/16 02:36:21;;;;;;;5.45;2.95;;;;;;;;;;5013383;28;20486;-58
2021/08/16 02:38:50;;;;;;;5.82;3.38;;;;;;;;;;5013442;28;20505;-58
2021/08/16 02:41:18;;;;;;;8.27;3.50;;;;;;;;;;5013673;28;20085;-58
2021/08/16 02:43:46;;;;;;;7.68;2.97;;;;;;;;;;5011350;28;20050;-58
2021/08/16 02:46:14;;;;;;;5.90;3.22;;;;;;;;;;5013139;28;20128;-58
2021/08/16 02:48:43;;;;;;;5.72;3.17;;;;;;;;;;5010246;28;20057;-58
2021/08/16 02:51:13;;;;;;;6.22;2.85;;;;;;;;;;5013138;28;20088;-59
2021/08/16 02:53:41;;;;;;;7.25;3.33;;;;;;;;;;5012296;28;20052;-59
2021/08/16 02:56:09;;;;;;;7.43;2.92;;;;;;;;;;5013384;28;20489;-58
2021/08/16 02:58:37;;;;;;;6.55;3.60;;;;;;;;;;5012731;28;20064;-58
2021/08/16 03:01:05;;;;;;;10.60;3.70;;;;;;;;;;5013493;28;20088;-58
2021/08/16 03:03:34;;;;;;;8.23;3.65;;;;;;;;;;5012478;28;20061;-58
2021/08/16 03:06:02;;;;;;;5.38;3.45;;;;;;;;;;5012507;28;20573;-58
2021/08/16 03:08:34;;;;;;;11.27;4.30;;;;;;;;;;5012470;28;20081;-58
2021/08/16 03:11:02;;;;;;;11.43;4.35;;;;;;;;;;5012449;28;20057;-58
2021/08/16 03:13:30;;;;;;;9.52;3.65;;;;;;;;;;4994272;28;20065;-58
2021/08/16 03:15:58;;;;;;;8.68;4.40;;;;;;;;;;4993538;28;20058;-58
2021/08/16 03:18:27;;;;;;;7.57;3.92;;;;;;;;;;4992841;28;20054;-58
2021/08/16 03:20:55;;;;;;;9.02;3.88;;;;;;;;;;4993466;28;20049;-58
2021/08/16 03:23:23;;;;;;;9.05;4.10;;;;;;;;;;4992133;28;20495;-60
2021/08/16 03:25:53;;;;;;;9.15;4.53;;;;;;;;;;5010208;28;20524;-59
2021/08/16 03:28:21;;;;;;;10.90;4.10;;;;;;;;;;5010533;28;20405;-58
2021/08/16 03:30:49;;;;;;;8.23;4.00;;;;;;;;;;5011159;28;20053;-58
2021/08/16 03:33:18;;;;;;;10.27;4.05;;;;;;;;;;5010973;28;20442;-58
2021/08/16 03:35:46;;;;;;;6.10;4.07;;;;;;;;;;5010639;28;20172;-58
2021/08/16 03:38:14;;;;;;;6.32;3.97;;;;;;;;;;5010903;28;20124;-59
2021/08/16 03:40:43;;;;;;;7.97;3.97;;;;;;;;;;5011308;28;20159;-58
2021/08/16 03:43:13;;;;;;;10.20;4.72;;;;;;;;;;5010785;28;20516;-59
2021/08/16 03:45:41;;;;;;;8.25;4.65;;;;;;;;;;5011158;28;20421;-58
2021/08/16 03:48:09;;;;;;;6.25;4.50;;;;;;;;;;5011176;28;20508;-59
2021/08/16 03:50:38;;;;;;;8.68;4.35;;;;;;;;;;5011187;28;20077;-59
2021/08/16 03:53:06;;;;;;;7.32;4.32;;;;;;;;;;5009888;28;20478;-58
2021/08/16 03:55:34;;;;;;;8.38;3.90;;;;;;;;;;5010250;28;20077;-59
2021/08/16 03:58:02;;;;;;;6.47;4.07;;;;;;;;;;5010791;28;20483;-58
2021/08/16 04:00:32;;;;;;;8.05;4.10;;;;;;;;;;5010803;28;20145;-59
2021/08/16 04:03:00;;;;;;;6.97;4.38;;;;;;;;;;5010226;28;20061;-58
2021/08/16 04:05:29;;;;;;;7.68;4.22;;;;;;;;;;5010196;28;20042;-58
2021/08/16 04:07:57;;;;;;;7.22;4.50;;;;;;;;;;5010579;28;20045;-58
2021/08/16 04:10:26;;;;;;;10.73;4.57;;;;;;;;;;5010160;28;20502;-59
2021/08/16 04:12:54;;;;;;;7.28;4.13;;;;;;;;;;5010366;28;20045;-58
2021/08/16 04:15:23;;;;;;;8.02;4.28;;;;;;;;;;5010904;28;20052;-58
2021/08/16 04:18:03;;;;;;;7.70;4.15;;;;;;;;;;983187;28;10022703;-58
2021/08/16 04:20:32;;;;;;;10.70;4.53;;;;;;;;;;4665954;28;10000939;-58
2021/08/16 04:23:00;;;;;;;7.68;5.05;;;;;;;;;;5011815;28;20141;-59
2021/08/16 04:25:28;;;;;;;7.25;4.88;;;;;;;;;;5010915;28;20354;-58
2021/08/16 04:27:56;;;;;;;10.30;5.60;;;;;;;;;;5011560;28;20136;-58
2021/08/16 04:30:25;;;;;;;8.38;4.57;;;;;;;;;;5011433;28;20066;-58
2021/08/16 04:32:53;;;;;;;8.23;4.60;;;;;;;;;;5011164;28;20056;-58
2021/08/16 04:35:23;;;;;;;10.25;4.57;;;;;;;;;;5010959;28;20056;-58
2021/08/16 04:37:51;;;;;;;7.95;4.25;;;;;;;;;;5011270;28;20129;-58
2021/08/16 04:40:20;;;;;;;7.15;4.03;;;;;;;;;;5011040;28;20167;-58
2021/08/16 04:42:48;;;;;;;9.82;4.63;;;;;;;;;;5011005;28;20061;-58
2021/08/16 04:45:16;;;;;;;7.80;4.38;;;;;;;;;;5010152;28;20056;-59
2021/08/16 04:47:45;;;;;;;7.25;4.28;;;;;;;;;;5011539;28;20056;-59
2021/08/16 04:50:14;;;;;;;9.80;4.72;;;;;;;;;;5011237;28;20046;-58
2021/08/16 04:52:44;;;;;;;11.27;5.03;;;;;;;;;;5011290;28;20088;-58
2021/08/16 04:55:12;;;;;;;7.93;4.88;;;;;;;;;;5010500;28;20046;-58
2021/08/16 04:57:41;;;;;;;8.88;5.20;;;;;;;;;;5011305;28;20064;-58
2021/08/16 05:00:10;;;;;;;8.82;5.18;;;;;;;;;;5010740;28;20050;-59
2021/08/16 05:02:39;;;;;;;6.75;4.32;;;;;;;;;;4991483;28;20072;-58
2021/08/16 05:05:09;;;;;;;6.75;4.15;;;;;;;;;;4990787;28;20469;-58
2021/08/16 05:07:38;;;;;;;9.35;4.72;;;;;;;;;;4991121;28;20060;-59
2021/08/16 05:10:08;;;;;;;8.32;4.70;;;;;;;;;;4991012;28;20225;-58
2021/08/16 05:12:37;;;;;;;10.93;5.43;;;;;;;;;;4993647;28;20125;-58
2021/08/16 05:15:06;;;;;;;7.85;5.03;;;;;;;;;;4992618;28;20058;-58
2021/08/16 05:17:34;;;;;;;8.40;5.03;;;;;;;;;;5010749;28;20456;-58
2021/08/16 05:20:05;;;;;;;13.57;6.15;;;;;;;;;;5010954;28;20140;-58
2021/08/16 05:22:33;;;;;;;8.25;5.35;;;;;;;;;;5010704;28;20694;-59
2021/08/16 05:25:02;;;;;;;10.93;4.72;;;;;;;;;;5010092;28;20049;-58
2021/08/16 05:27:31;;;;;;;9.18;5.15;;;;;;;;;;5010560;28;20286;-58
2021/08/16 05:30:00;;;;;;;12.68;5.93;;;;;;;;;;5010706;28;20156;-58
2021/08/16 05:32:28;;;;;;;20.92;6.40;;;;;;;;;;5011004;28;20054;-59
2021/08/16 05:34:56;;;;;;;11.45;6.25;;;;;;;;;;5010286;28;20042;-58
2021/08/16 05:37:24;;;;;;;10.30;5.70;;;;;;;;;;5010717;28;20049;-59
2021/08/16 05:39:53;;;;;;;13.93;6.05;;;;;;;;;;5010786;28;20046;-59
2021/08/16 05:42:21;;;;;;;9.00;5.70;;;;;;;;;;5010380;28;20137;-59
2021/08/16 05:44:50;;;;;;;12.00;6.03;;;;;;;;;;5010243;28;20141;-57
2021/08/16 05:47:19;;;;;;;15.02;6.35;;;;;;;;;;5011164;28;20050;-58
2021/08/16 05:49:47;;;;;;;11.88;5.93;;;;;;;;;;5010608;28;20178;-57
2021/08/16 05:52:15;;;;;;;12.10;5.43;;;;;;;;;;5011070;28;20064;-57
2021/08/16 05:54:43;;;;;;;8.52;5.60;;;;;;;;;;5011025;28;20449;-57
2021/08/16 05:57:12;;;;;;;13.38;6.03;;;;;;;;;;5011338;28;20132;-57
2021/08/16 05:59:40;;;;;;;15.43;6.40;;;;;;;;;;5010675;28;20064;-58
2021/08/16 06:02:09;;;;;;;8.90;5.53;;;;;;;;;;5008611;28;20141;-58
2021/08/16 06:04:38;;;;;;;12.93;5.55;;;;;;;;;;5010204;28;20046;-58
2021/08/16 06:07:06;;;;;;;10.25;4.80;;;;;;;;;;5011039;28;20084;-58
2021/08/16 06:09:34;;;;;;;10.38;5.10;;;;;;;;;;5010802;28;20121;-57
2021/08/16 06:12:03;;;;;;;9.57;4.60;;;;;;;;;;5004420;28;20049;-58
2021/08/16 06:14:31;;;;;;;8.00;4.40;;;;;;;;;;4990304;28;20046;-56
2021/08/16 06:16:59;;;;;;;9.15;4.53;;;;;;;;;;4991403;28;20046;-57
2021/08/16 06:19:29;;;;;;;10.38;4.35;;;;;;;;;;4994407;28;20089;-57
2021/08/16 06:21:57;;;;;;;6.43;3.83;;;;;;;;;;4994978;28;20050;-58
2021/08/16 06:24:25;;;;;;;7.88;4.30;;;;;;;;;;5006242;28;20227;-59
2021/08/16 06:26:54;;;;;;;9.18;4.35;;;;;;;;;;5014131;28;20084;-57
2021/08/16 06:29:22;;;;;;;7.45;4.20;;;;;;;;;;5013970;28;20557;-58
2021/08/16 06:31:50;;;;;;;8.00;4.13;;;;;;;;;;5014691;28;20081;-58
2021/08/16 06:34:19;;;;;;;7.78;3.55;;;;;;;;;;5013411;28;20490;-59
2021/08/16 06:36:53;;;;;;;7.50;3.53;;;;;;;;;;5013344;28;20132;-59
2021/08/16 06:39:21;;;;;;;5.57;3.50;;;;;;;;;;5014176;28;20144;-58
2021/08/16 06:41:51;;;;;;;8.57;3.47;;;;;;;;;;5013575;28;20077;-57
2021/08/16 06:44:23;;;;;;;6.22;3.50;;;;;;;;;;5013481;28;20057;-58
2021/08/16 06:46:52;;;;;;;7.07;4.07;;;;;;;;;;5014419;28;20570;-57
2021/08/16 06:49:21;;;;;;;9.18;3.47;;;;;;;;;;5013786;28;20061;-57
2021/08/16 06:51:50;;;;;;;7.72;3.40;;;;;;;;;;5013635;28;20217;-58
2021/08/16 06:54:23;;;;;;;7.57;3.75;;;;;;;;;;5009215;28;20141;-58
2021/08/16 06:56:58;;;;;;;5.75;3.30;;;;;;;;;;5011780;28;20095;-59
2021/08/16 06:59:27;;;;;;;6.65;3.70;;;;;;;;;;4994308;28;20046;-58
2021/08/16 07:01:55;;;;;;;6.32;3.13;;;;;;;;;;4994843;28;20129;-58
2021/08/16 07:04:24;;;;;;;10.35;3.67;;;;;;;;;;4994029;28;20077;-58
2021/08/16 07:06:54;;;;;;;10.95;3.78;;;;;;;;;;4994170;28;20046;-57
2021/08/16 07:09:23;;;;;;;5.88;3.20;;;;;;;;;;4993669;28;20142;-58
2021/08/16 07:11:51;;;;;;;6.70;3.22;;;;;;;;;;4995460;28;20413;-57
2021/08/16 07:14:20;;;;;;;6.88;3.40;;;;;;;;;;4996539;28;20103;-58
2021/08/16 07:16:48;;;;;;;6.40;3.20;;;;;;;;;;5013079;28;20057;-58
2021/08/16 07:19:17;;;;;;;5.13;2.95;;;;;;;;;;5012931;28;20064;-59
2021/08/16 07:21:46;;;;;;;4.78;2.55;;;;;;;;;;5012678;28;20045;-58
2021/08/16 07:24:18;;;;;;;3.75;2.20;;;;;;;;;;5013176;28;20054;-57
2021/08/16 07:26:47;;;;;;;4.88;3.00;;;;;;;;;;5012723;28;20112;-58
2021/08/16 07:29:15;;;;;;;7.53;3.20;;;;;;;;;;5012275;28;20053;-58
2021/08/16 07:31:44;;;;;;;5.07;3.10;;;;;;;;;;5013228;28;20050;-58
2021/08/16 07:34:12;;;;;;;5.68;3.33;;;;;;;;;;5012182;28;20061;-58
2021/08/16 07:36:40;;;;;;;5.72;3.47;;;;;;;;;;5012794;28;20442;-58
2021/08/16 07:39:09;;;;;;;5.53;3.03;;;;;;;;;;5013054;28;20509;-58
2021/08/16 07:41:38;;;;;;;11.13;2.78;;;;;;;;;;5012662;28;20049;-58
2021/08/16 07:44:07;;;;;;;5.00;2.78;;;;;;;;;;5011612;28;20490;-57
2021/08/16 07:46:36;;;;;;;6.43;2.80;;;;;;;;;;5012243;28;20050;-59
2021/08/16 07:49:05;;;;;;;3.92;2.65;;;;;;;;;;5012767;28;20058;-57
2021/08/16 07:51:33;;;;;;;5.25;2.78;;;;;;;;;;5012572;28;20050;-57
2021/08/16 07:54:02;;;;;;;3.40;2.60;;;;;;;;;;5011730;28;20089;-58
2021/08/16 07:56:30;;;;;;;6.35;3.05;;;;;;;;;;5011938;28;20081;-58
2021/08/16 07:59:00;;;;;;;6.82;3.05;;;;;;;;;;5012437;28;20421;-58
2021/08/16 08:01:29;;;;;;;6.13;3.00;;;;;;;;;;5012380;28;20077;-58
2021/08/16 08:03:57;;;;;;;6.35;2.60;;;;;;;;;;5011795;28;20111;-58
2021/08/16 08:06:26;;;;;;;6.65;3.17;;;;;;;;;;5011654;28;20057;-58
2021/08/16 08:08:55;;;;;;;3.85;2.42;;;;;;;;;;5011917;28;20049;-58
2021/08/16 08:11:23;;;;;;;6.25;2.83;;;;;;;;;;5011583;28;20096;-58
2021/08/16 08:13:51;;;;;;;3.63;2.47;;;;;;;;;;5011107;28;20100;-58
2021/08/16 08:16:21;;;;;;;4.18;2.83;;;;;;;;;;5011217;28;20049;-58
2021/08/16 08:18:50;;;;;;;5.47;3.00;;;;;;;;;;5012120;28;20474;-58
2021/08/16 08:21:18;;;;;;;8.30;3.20;;;;;;;;;;5011653;28;20100;-58
2021/08/16 08:23:47;;;;;;;6.25;2.90;;;;;;;;;;5010980;28;20454;-59
2021/08/16 08:26:15;;;;;;;6.38;2.90;;;;;;;;;;5011363;28;20088;-58
2021/08/16 08:28:43;;;;;;;7.03;3.10;;;;;;;;;;5011113;28;20042;-58
2021/08/16 08:31:12;;;;;;;5.68;2.90;;;;;;;;;;5011984;28;20104;-58
2021/08/16 08:33:42;;;;;;;4.55;2.83;;;;;;;;;;5010863;28;20544;-60
2021/08/16 08:36:10;;;;;;;7.22;3.33;;;;;;;;;;5011630;28;20132;-58
2021/08/16 08:38:39;;;;;;;4.57;3.20;;;;;;;;;;5011253;28;20141;-58
2021/08/16 08:41:08;;;;;;;4.53;2.90;;;;;;;;;;5010150;28;20191;-58
2021/08/16 08:43:36;;;;;;;5.85;2.80;;;;;;;;;;5010805;28;20072;-58
2021/08/16 08:46:05;;;;;;;4.70;2.97;;;;;;;;;;5011271;28;20103;-58
2021/08/16 08:48:33;;;;;;;5.38;3.03;;;;;;;;;;5011719;28;20057;-59
2021/08/16 08:51:03;;;;;;;8.45;3.05;;;;;;;;;;5011268;28;20133;-57
2021/08/16 08:53:32;;;;;;;4.88;3.10;;;;;;;;;;5011171;28;20137;-58
2021/08/16 08:56:00;;;;;;;6.63;3.28;;;;;;;;;;5010729;28;20138;-59
2021/08/16 08:58:29;;;;;;;5.13;3.60;;;;;;;;;;5011379;28;20088;-58
2021/08/16 09:00:57;;;;;;;6.80;3.55;;;;;;;;;;5011345;28;20066;-59
2021/08/16 09:03:26;;;;;;;4.30;3.03;;;;;;;;;;5010788;28;20061;-59
2021/08/16 09:05:56;;;;;;;4.80;3.00;;;;;;;;;;5010914;28;20053;-57
2021/08/16 09:08:27;;;;;;;6.35;2.88;;;;;;;;;;5010791;28;20042;-58
2021/08/16 09:11:06;;;;;;;5.68;3.40;;;;;;;;;;5011966;28;20049;-57
2021/08/16 09:13:35;;;;;;;9.27;3.92;;;;;;;;;;5009477;28;20490;-58
2021/08/16 09:16:10;;;;;;;6.00;3.20;;;;;;;;;;5010699;28;20515;-58
2021/08/16 09:18:39;;;;;;;7.20;3.33;;;;;;;;;;5011417;28;20046;-59
2021/08/16 09:21:08;;;;;;;4.95;3.65;;;;;;;;;;5010979;28;20057;-57
2021/08/16 09:23:47;;;;;;;4.68;3.65;;;;;;;;;;5010680;28;20402;-59
2021/08/16 09:26:18;;;;;;;6.15;3.50;;;;;;;;;;5011402;28;20050;-59
2021/08/16 09:28:47;;;;;;;5.03;3.42;;;;;;;;;;5011217;28;20466;-58
2021/08/16 09:31:16;;;;;;;8.02;3.50;;;;;;;;;;5011084;28;20046;-60
2021/08/16 09:33:53;;;;;;;6.30;3.72;;;;;;;;;;5010517;28;20487;-58
2021/08/16 09:36:21;;;;;;;8.48;4.15;;;;;;;;;;5010783;28;20553;-58
2021/08/16 09:38:51;;;;;;;5.70;3.95;;;;;;;;;;5011263;28;20134;-58
2021/08/16 09:41:23;;;;;;;7.68;4.40;;;;;;;;;;5010325;28;20085;-58
2021/08/16 09:43:52;;;;;;;7.13;4.20;;;;;;;;;;4990941;28;20089;-59
2021/08/16 09:46:21;;;;;;;5.88;3.80;;;;;;;;;;4991580;28;20545;-58
2021/08/16 09:48:57;;;;;;;7.03;3.95;;;;;;;;;;5006973;28;20058;-57
2021/08/16 09:51:26;;;;;;;7.68;3.95;;;;;;;;;;5010421;28;20038;-59
2021/08/16 09:53:59;;;;;;;6.32;3.20;;;;;;;;;;5009739;28;20073;-58
2021/08/16 09:56:27;;;;;;;8.48;4.15;;;;;;;;;;4995137;28;20125;-57
2021/08/16 09:58:57;;;;;;;9.55;4.35;;;;;;;;;;4994936;28;20049;-58
2021/08/16 10:01:29;;;;;;;6.90;3.85;;;;;;;;;;4994728;28;20062;-58
2021/08/16 10:03:58;;;;;;;7.15;3.70;;;;;;;;;;4994443;28;20062;-58
2021/08/16 10:06:27;;;;;;;7.65;3.40;;;;;;;;;;4975707;28;20050;-58
2021/08/16 10:08:56;;;;;;;7.53;4.15;;;;;;;;;;4975231;28;20074;-58
2021/08/16 10:11:26;;;;;;;8.43;4.63;;;;;;;;;;4977297;28;20074;-58
2021/08/16 10:13:56;;;;;;;7.55;4.32;;;;;;;;;;4977450;28;20116;-58
2021/08/16 10:16:25;;;;;;;7.35;3.90;;;;;;;;;;4994783;28;20058;-59
2021/08/16 10:18:55;;;;;;;10.63;5.22;;;;;;;;;;4994626;28;20112;-58
2021/08/16 10:21:24;;;;;;;7.32;4.32;;;;;;;;;;4998650;28;20498;-58
2021/08/16 10:23:54;;;;;;;9.85;4.60;;;;;;;;;;5013605;28;20121;-58
2021/08/16 10:26:31;;;;;;;8.13;4.97;;;;;;;;;;5013616;28;20080;-58
2021/08/16 10:29:00;;;;;;;7.78;4.35;;;;;;;;;;5014097;28;20054;-58
2021/08/16 10:31:30;;;;;;;9.40;4.60;;;;;;;;;;5013649;28;20528;-58
2021/08/16 10:33:59;;;;;;;8.80;4.55;;;;;;;;;;5013266;28;20054;-58
2021/08/16 10:36:28;;;;;;;11.95;5.07;;;;;;;;;;5013912;28;20050;-58
2021/08/16 10:38:57;;;;;;;7.68;4.82;;;;;;;;;;5013202;28;20058;-58
2021/08/16 10:41:26;;;;;;;10.23;4.75;;;;;;;;;;5014031;28;20073;-58
2021/08/16 10:43:56;;;;;;;11.52;4.85;;;;;;;;;;5012952;28;20630;-58
2021/08/16 10:46:25;;;;;;;7.70;5.22;;;;;;;;;;5013365;28;20057;-58
2021/08/16 10:49:00;;;;;;;7.43;4.70;;;;;;;;;;5013435;28;20502;-58
2021/08/16 10:51:39;;;;;;;8.13;4.88;;;;;;;;;;5013332;28;20137;-58
2021/08/16 10:54:07;;;;;;;13.77;5.22;;;;;;;;;;5012874;28;20169;-58
2021/08/16 10:56:36;;;;;;;15.00;5.95;;;;;;;;;;5013039;28;20129;-58
2021/08/16 10:59:05;;;;;;;11.23;5.80;;;;;;;;;;5013740;28;20100;-58
2021/08/16 11:01:35;;;;;;;12.68;6.60;;;;;;;;;;5013096;28;20100;-58
2021/08/16 11:04:30;;;;;;;13.77;6.63;;;;;;;;;;5011677;28;20060;-59
2021/08/16 11:07:01;;;;;;;17.90;6.68;;;;;;;;;;5013622;28;20059;-58
2021/08/16 11:09:31;;;;;;;13.50;6.28;;;;;;;;;;5012893;28;20054;-58
2021/08/16 11:12:02;;;;;;;10.55;6.10;;;;;;;;;;5012828;28;20593;-58
2021/08/16 11:14:32;;;;;;;12.07;6.45;;;;;;;;;;4993174;28;20510;-58
2021/08/16 11:17:01;;;;;;;8.90;5.50;;;;;;;;;;4993233;28;20495;-58
2021/08/16 11:19:41;;;;;;;10.52;5.68;;;;;;;;;;4993164;28;20109;-58
2021/08/16 11:22:09;;;;;;;9.35;5.50;;;;;;;;;;4993400;28;20092;-58
2021/08/16 11:24:38;;;;;;;9.77;5.53;;;;;;;;;;4992752;28;20038;-58
2021/08/16 11:27:08;;;;;;;10.07;6.05;;;;;;;;;;4993572;28;20046;-59
2021/08/16 11:29:39;;;;;;;15.80;5.93;;;;;;;;;;4998649;28;20073;-59
2021/08/16 11:32:08;;;;;;;9.40;5.13;;;;;;;;;;5012937;28;20157;-58
2021/08/16 11:34:47;;;;;;;12.02;6.75;;;;;;;;;;5011549;28;20564;-58
2021/08/16 11:37:16;;;;;;;16.70;6.90;;;;;;;;;;5012926;28;20058;-58
2021/08/16 11:39:47;;;;;;;12.93;6.95;;;;;;;;;;5012374;28;20061;-58
2021/08/16 11:42:36;;;;;;;11.95;6.35;;;;;;;;;;5012879;28;20058;-58
2021/08/16 11:45:06;;;;;;;12.18;6.32;;;;;;;;;;5011748;28;20053;-58
2021/08/16 11:47:35;;;;;;;9.40;5.95;;;;;;;;;;5012489;28;20054;-59
2021/08/16 11:50:05;;;;;;;12.25;6.45;;;;;;;;;;5012373;28;20046;-60
2021/08/16 11:52:34;;;;;;;12.20;6.68;;;;;;;;;;5012029;28;20536;-58
2021/08/16 11:55:05;;;;;;;10.73;6.50;;;;;;;;;;5012070;28;20056;-58
2021/08/16 11:57:33;;;;;;;11.13;6.50;;;;;;;;;;5012115;28;20139;-58
2021/08/16 12:00:02;;;;;;;11.50;6.40;;;;;;;;;;5012745;28;20050;-58
2021/08/16 12:02:35;;;;;;;11.57;6.32;;;;;;;;;;5011835;28;20072;-58
2021/08/16 12:05:04;;;;;;;12.32;6.13;;;;;;;;;;5011369;28;20045;-59
2021/08/16 12:07:33;;;;;;;10.65;6.72;;;;;;;;;;5011937;28;20080;-59
2021/08/16 12:10:02;;;;;;;11.75;6.82;;;;;;;;;;5011694;28;20054;-58
2021/08/16 12:12:31;;;;;;;14.88;7.43;;;;;;;;;;5001598;28;20062;-58
2021/08/16 12:15:01;;;;;;;13.48;7.50;;;;;;;;;;4991819;28;20062;-58
2021/08/16 12:17:29;;;;;;;12.15;7.22;;;;;;;;;;4992309;28;20069;-58
2021/08/16 12:20:04;;;;;;;13.18;7.50;;;;;;;;;;4992760;28;20588;-58
2021/08/16 12:22:33;;;;;;;;;;;;;;;;;;4992703;28;20088;-58
2021/08/16 12:25:02;;;;;;;12.13;6.57;;;;;;;;;;4991562;28;20283;-58
2021/08/16 12:27:30;;;;;;;15.55;7.10;;;;;;;;;;4992909;28;20137;-58
2021/08/16 12:29:59;;;;;;;13.02;7.35;;;;;;;;;;4993237;28;20110;-58
2021/08/16 12:32:28;;;;;;;14.05;7.45;;;;;;;;;;4993906;28;20398;-58
2021/08/16 12:34:58;;;;;;;12.05;7.20;;;;;;;;;;4992860;28;20050;-59
2021/08/16 12:37:29;;;;;;;11.73;6.93;;;;;;;;;;4998152;28;20054;-58
2021/08/16 12:40:07;;;;;;;13.82;7.03;;;;;;;;;;5013962;28;20128;-58
2021/08/16 12:42:36;;;;;;;8.88;5.68;;;;;;;;;;5013192;28;20057;-58
2021/08/16 12:45:04;;;;;;;9.95;5.78;;;;;;;;;;5012526;28;20054;-58
2021/08/16 12:47:34;;;;;;;9.77;6.13;;;;;;;;;;5013571;28;20133;-58
2021/08/16 12:50:03;;;;;;;13.10;7.22;;;;;;;;;;5014174;28;20415;-58
2021/08/16 12:52:32;;;;;;;12.10;6.20;;;;;;;;;;5013522;28;20054;-57
2021/08/16 12:55:01;;;;;;;12.93;5.43;;;;;;;;;;5011121;28;20471;-58
2021/08/16 12:57:29;;;;;;;10.73;5.60;;;;;;;;;;5010945;28;20096;-58
2021/08/16 12:59:57;;;;;;;10.70;5.97;;;;;;;;;;5010991;28;20112;-59
2021/08/16 13:02:27;;;;;;;13.65;6.30;;;;;;;;;;5011156;28;20073;-58
2021/08/16 13:04:56;;;;;;;10.70;6.13;;;;;;;;;;5010239;28;20056;-59
2021/08/16 13:07:25;;;;;;;9.75;5.47;;;;;;;;;;5011400;28;20560;-58
2021/08/16 13:09:54;;;;;;;11.45;5.97;;;;;;;;;;5011266;28;20090;-58
2021/08/16 13:12:25;;;;;;;13.90;5.60;;;;;;;;;;5010741;28;20050;-58
2021/08/16 13:14:55;;;;;;;14.18;5.85;;;;;;;;;;5010859;28;20125;-57
2021/08/16 13:17:24;;;;;;;11.80;6.05;;;;;;;;;;5010889;28;20465;-58
2021/08/16 13:19:52;;;;;;;11.70;5.82;;;;;;;;;;5010822;28;20050;-58
2021/08/16 13:22:20;;;;;;;11.82;6.07;;;;;;;;;;5010799;28;20459;-57
2021/08/16 13:24:49;;;;;;;12.85;5.95;;;;;;;;;;5010094;28;20640;-58
2021/08/16 13:27:19;;;;;;;12.57;6.47;;;;;;;;;;5010630;28;20053;-59
2021/08/16 13:29:47;;;;;;;10.10;6.10;;;;;;;;;;5010948;28;20085;-59
2021/08/16 13:32:15;;;;;;;10.70;5.60;;;;;;;;;;5011232;28;20474;-57
2021/08/16 13:34:43;;;;;;;12.02;6.38;;;;;;;;;;5010442;28;20064;-58
2021/08/16 13:37:13;;;;;;;11.02;5.68;;;;;;;;;;5010194;28;20077;-58
2021/08/16 13:39:43;;;;;;;12.23;5.60;;;;;;;;;;5010178;28;20052;-59
2021/08/16 13:42:11;;;;;;;11.55;5.25;;;;;;;;;;5010929;28;20069;-57
2021/08/16 13:44:41;;;;;;;8.68;5.32;;;;;;;;;;5010300;28;20050;-59
2021/08/16 13:47:09;;;;;;;14.30;6.30;;;;;;;;;;5010766;28;20085;-58
2021/08/16 13:49:38;;;;;;;11.18;5.47;;;;;;;;;;5010573;28;20585;-57
2021/08/16 13:52:07;;;;;;;12.90;5.47;;;;;;;;;;5010989;28;20104;-58
2021/08/16 13:54:35;;;;;;;8.07;4.85;;;;;;;;;;5010135;28;20109;-59
2021/08/16 13:57:03;;;;;;;13.40;5.55;;;;;;;;;;5010860;28;20049;-58
2021/08/16 13:59:31;;;;;;;10.82;5.20;;;;;;;;;;5011051;28;20060;-58
2021/08/16 14:02:01;;;;;;;8.93;5.22;;;;;;;;;;5010526;28;20085;-58
2021/08/16 14:04:30;;;;;;;12.23;6.07;;;;;;;;;;4990704;28;20042;-58
2021/08/16 14:06:58;;;;;;;10.77;6.25;;;;;;;;;;4990828;28;20055;-59
2021/08/16 14:09:40;;;;;;;10.90;6.00;;;;;;;;;;4990744;28;20082;-58
2021/08/16 14:12:09;;;;;;;9.48;5.95;;;;;;;;;;5000665;28;20050;-59
2021/08/16 14:14:38;;;;;;;13.80;6.70;;;;;;;;;;5009993;28;20125;-60
2021/08/16 14:17:08;;;;;;;10.13;6.03;;;;;;;;;;5010290;28;20046;-58
2021/08/16 14:19:36;;;;;;;10.18;5.93;;;;;;;;;;5010196;28;20498;-58
2021/08/16 14:22:05;;;;;;;11.88;5.50;;;;;;;;;;5010427;28;20042;-57
2021/08/16 14:24:33;;;;;;;10.75;5.45;;;;;;;;;;5009788;28;20073;-57
2021/08/16 14:27:02;;;;;;;11.63;5.72;;;;;;;;;;5010633;28;20068;-57
2021/08/16 14:29:31;;;;;;;12.85;5.57;;;;;;;;;;5010557;28;20054;-58
2021/08/16 14:31:59;;;;;;;8.43;5.07;;;;;;;;;;5010493;28;20133;-59
2021/08/16 14:34:29;;;;;;;9.63;4.85;;;;;;;;;;5009762;28;20045;-59
2021/08/16 14:36:57;;;;;;;7.65;3.88;;;;;;;;;;5010008;28;20104;-58
2021/08/16 14:39:26;;;;;;;7.63;4.55;;;;;;;;;;5010233;28;20133;-58
2021/08/16 14:41:55;;;;;;;8.27;4.03;;;;;;;;;;5013116;28;20169;-58
2021/08/16 14:44:23;;;;;;;9.23;4.28;;;;;;;;;;5012946;28;20108;-58
2021/08/16 14:46:52;;;;;;;7.70;4.38;;;;;;;;;;5013262;28;20509;-58
2021/08/16 14:49:20;;;;;;;9.43;3.53;;;;;;;;;;5013715;28;20479;-58
2021/08/16 14:51:50;;;;;;;8.70;3.70;;;;;;;;;;5012817;28;20049;-58